sensor_id;sensor_type;location;lat;lon;timestamp;temperature;humidity
3005;DHT22;1512;51.486;6.610;2022-09-12T00:02:19;14.80;99.90
3005;DHT22;1512;51.486;6.610;2022-09-12T00:06:37;14.70;99.90
3005;DHT22;1512;51.486;6.610;2022-09-12T00:10:42;14.70;99.90
3005;DHT22;1512;51.486;6.610;2022-09-12T00:14:52;14.70;99.90
3005;DHT22;1512;51.486;6.610;2022-09-12T00:19:02;14.60;99.90
3005;DHT22;1512;51.486;6.610;2022-09-12T00:23:11;14.60;99.90
3005;DHT22;1512;51.486;6.610;2022-09-12T00:27:20;14.60;99.90
3005;DHT22;1512;51.486;6.610;2022-09-12T00:31:28;14.50;99.90
3005;DHT22;1512;51.486;6.610;2022-09-12T00:35:45;14.50;99.90
3005;DHT22;1512;51.486;6.610;2022-09-12T00:39:53;14.50;99.90
3005;DHT22;1512;51.486;6.610;2022-09-12T00:48:38;14.50;99.90
3005;DHT22;1512;51.486;6.610;2022-09-12T00:52:51;14.40;99.90
3005;DHT22;1512;51.486;6.610;2022-09-12T00:57:02;14.40;99.90
3005;DHT22;1512;51.486;6.610;2022-09-12T01:01:12;14.40;99.90
3005;DHT22;1512;51.486;6.610;2022-09-12T01:05:23;14.30;99.90
3005;DHT22;1512;51.486;6.610;2022-09-12T01:09:32;14.30;99.90
3005;DHT22;1512;51.486;6.610;2022-09-12T01:14:01;14.30;99.90
3005;DHT22;1512;51.486;6.610;2022-09-12T01:18:31;14.20;99.90
3005;DHT22;1512;51.486;6.610;2022-09-12T01:27:21;14.20;99.90
3005;DHT22;1512;51.486;6.610;2022-09-12T01:31:33;14.20;99.90
3005;DHT22;1512;51.486;6.610;2022-09-12T01:48:46;14.10;99.90
3005;DHT22;1512;51.486;6.610;2022-09-12T01:52:58;14.00;99.90
3005;DHT22;1512;51.486;6.610;2022-09-12T01:57:17;14.00;99.90
3005;DHT22;1512;51.486;6.610;2022-09-12T02:01:30;14.00;99.90
3005;DHT22;1512;51.486;6.610;2022-09-12T02:05:41;14.00;99.90
3005;DHT22;1512;51.486;6.610;2022-09-12T02:09:53;14.00;99.90
3005;DHT22;1512;51.486;6.610;2022-09-12T02:14:21;14.00;99.90
3005;DHT22;1512;51.486;6.610;2022-09-12T02:18:32;13.90;99.90
3005;DHT22;1512;51.486;6.610;2022-09-12T02:22:42;13.90;99.90
3005;DHT22;1512;51.486;6.610;2022-09-12T02:26:55;13.90;99.90
3005;DHT22;1512;51.486;6.610;2022-09-12T02:31:27;13.90;99.90
3005;DHT22;1512;51.486;6.610;2022-09-12T02:35:52;13.80;99.90
3005;DHT22;1512;51.486;6.610;2022-09-12T02:40:00;13.80;99.90
3005;DHT22;1512;51.486;6.610;2022-09-12T02:44:09;13.70;99.90
3005;DHT22;1512;51.486;6.610;2022-09-12T02:48:20;13.70;99.90
3005;DHT22;1512;51.486;6.610;2022-09-12T02:52:30;13.70;99.90
3005;DHT22;1512;51.486;6.610;2022-09-12T02:56:41;13.70;99.90
3005;DHT22;1512;51.486;6.610;2022-09-12T03:05:21;13.70;99.90
3005;DHT22;1512;51.486;6.610;2022-09-12T03:09:48;13.70;99.90
3005;DHT22;1512;51.486;6.610;2022-09-12T03:18:31;13.50;99.90
3005;DHT22;1512;51.486;6.610;2022-09-12T03:22:54;13.60;99.90
3005;DHT22;1512;51.486;6.610;2022-09-12T03:31:26;13.50;99.90
3005;DHT22;1512;51.486;6.610;2022-09-12T03:35:35;13.60;99.90
3005;DHT22;1512;51.486;6.610;2022-09-12T03:39:44;13.50;99.90
3005;DHT22;1512;51.486;6.610;2022-09-12T03:43:53;13.50;99.90
3005;DHT22;1512;51.486;6.610;2022-09-12T03:48:04;13.60;99.90
3005;DHT22;1512;51.486;6.610;2022-09-12T03:52:13;13.50;99.90
3005;DHT22;1512;51.486;6.610;2022-09-12T03:56:22;13.50;99.90
3005;DHT22;1512;51.486;6.610;2022-09-12T04:00:30;13.50;99.90
3005;DHT22;1512;51.486;6.610;2022-09-12T04:04:43;13.50;99.90
3005;DHT22;1512;51.486;6.610;2022-09-12T04:08:54;13.50;99.90
3005;DHT22;1512;51.486;6.610;2022-09-12T04:13:03;13.40;99.90
3005;DHT22;1512;51.486;6.610;2022-09-12T04:17:12;13.40;99.90
3005;DHT22;1512;51.486;6.610;2022-09-12T04:21:21;13.40;99.90
3005;DHT22;1512;51.486;6.610;2022-09-12T04:25:30;13.40;99.90
3005;DHT22;1512;51.486;6.610;2022-09-12T04:29:38;13.40;99.90
3005;DHT22;1512;51.486;6.610;2022-09-12T04:33:52;13.40;99.90
3005;DHT22;1512;51.486;6.610;2022-09-12T04:37:57;13.40;99.90
3005;DHT22;1512;51.486;6.610;2022-09-12T04:42:06;13.30;99.90
3005;DHT22;1512;51.486;6.610;2022-09-12T04:46:16;13.40;99.90
3005;DHT22;1512;51.486;6.610;2022-09-12T04:50:46;13.40;99.90
3005;DHT22;1512;51.486;6.610;2022-09-12T04:54:55;13.40;99.90
3005;DHT22;1512;51.486;6.610;2022-09-12T04:59:04;13.30;99.90
3005;DHT22;1512;51.486;6.610;2022-09-12T05:03:13;13.30;99.90
3005;DHT22;1512;51.486;6.610;2022-09-12T05:07:21;13.40;99.90
3005;DHT22;1512;51.486;6.610;2022-09-12T05:11:32;13.40;99.90
3005;DHT22;1512;51.486;6.610;2022-09-12T05:15:43;13.40;99.90
3005;DHT22;1512;51.486;6.610;2022-09-12T05:19:53;13.40;99.90
3005;DHT22;1512;51.486;6.610;2022-09-12T05:24:02;13.50;99.90
3005;DHT22;1512;51.486;6.610;2022-09-12T05:28:12;13.60;99.90
3005;DHT22;1512;51.486;6.610;2022-09-12T05:32:21;13.60;99.90
3005;DHT22;1512;51.486;6.610;2022-09-12T05:36:30;13.70;99.90
3005;DHT22;1512;51.486;6.610;2022-09-12T05:40:39;13.70;99.90
3005;DHT22;1512;51.486;6.610;2022-09-12T05:44:48;13.80;99.90
3005;DHT22;1512;51.486;6.610;2022-09-12T05:49:01;13.80;99.90
3005;DHT22;1512;51.486;6.610;2022-09-12T05:53:08;13.90;99.90
3005;DHT22;1512;51.486;6.610;2022-09-12T05:57:17;13.90;99.90
3005;DHT22;1512;51.486;6.610;2022-09-12T06:01:29;13.90;99.90
3005;DHT22;1512;51.486;6.610;2022-09-12T06:05:38;14.00;99.90
3005;DHT22;1512;51.486;6.610;2022-09-12T06:09:46;14.00;99.90
3005;DHT22;1512;51.486;6.610;2022-09-12T06:13:56;14.10;99.90
3005;DHT22;1512;51.486;6.610;2022-09-12T06:18:05;14.20;99.90
3005;DHT22;1512;51.486;6.610;2022-09-12T06:22:14;14.30;99.90
3005;DHT22;1512;51.486;6.610;2022-09-12T06:26:42;14.40;99.90
3005;DHT22;1512;51.486;6.610;2022-09-12T06:30:51;14.50;99.90
3005;DHT22;1512;51.486;6.610;2022-09-12T06:35:00;14.60;99.90
3005;DHT22;1512;51.486;6.610;2022-09-12T06:39:12;14.80;99.90
3005;DHT22;1512;51.486;6.610;2022-09-12T06:43:21;14.90;99.90
3005;DHT22;1512;51.486;6.610;2022-09-12T06:47:30;15.10;99.90
3005;DHT22;1512;51.486;6.610;2022-09-12T06:51:39;15.20;99.90
3005;DHT22;1512;51.486;6.610;2022-09-12T06:55:58;15.30;99.90
3005;DHT22;1512;51.486;6.610;2022-09-12T07:00:09;15.30;99.90
3005;DHT22;1512;51.486;6.610;2022-09-12T07:04:17;15.40;99.90
3005;DHT22;1512;51.486;6.610;2022-09-12T07:08:26;15.50;99.90
3005;DHT22;1512;51.486;6.610;2022-09-12T07:12:37;15.60;99.90
3005;DHT22;1512;51.486;6.610;2022-09-12T07:16:46;15.70;99.90
3005;DHT22;1512;51.486;6.610;2022-09-12T07:20:55;15.90;99.90
3005;DHT22;1512;51.486;6.610;2022-09-12T07:25:04;15.80;99.90
3005;DHT22;1512;51.486;6.610;2022-09-12T07:29:15;15.90;99.90
3005;DHT22;1512;51.486;6.610;2022-09-12T07:33:27;16.00;99.90
3005;DHT22;1512;51.486;6.610;2022-09-12T07:37:36;16.00;99.90
3005;DHT22;1512;51.486;6.610;2022-09-12T07:41:44;16.10;99.90
3005;DHT22;1512;51.486;6.610;2022-09-12T07:45:56;16.10;99.90
3005;DHT22;1512;51.486;6.610;2022-09-12T07:50:06;16.10;99.90
3005;DHT22;1512;51.486;6.610;2022-09-12T07:54:15;16.10;99.90
3005;DHT22;1512;51.486;6.610;2022-09-12T07:58:25;16.10;99.90
3005;DHT22;1512;51.486;6.610;2022-09-12T08:02:33;16.10;99.90
3005;DHT22;1512;51.486;6.610;2022-09-12T08:06:42;16.10;99.90
3005;DHT22;1512;51.486;6.610;2022-09-12T08:10:55;16.20;99.90
3005;DHT22;1512;51.486;6.610;2022-09-12T08:15:03;16.20;99.90
3005;DHT22;1512;51.486;6.610;2022-09-12T08:19:12;16.40;99.90
3005;DHT22;1512;51.486;6.610;2022-09-12T08:23:20;16.60;99.90
3005;DHT22;1512;51.486;6.610;2022-09-12T08:27:30;16.70;99.90
3005;DHT22;1512;51.486;6.610;2022-09-12T08:31:38;16.80;99.90
3005;DHT22;1512;51.486;6.610;2022-09-12T08:35:49;17.00;99.90
3005;DHT22;1512;51.486;6.610;2022-09-12T08:39:57;17.20;99.90
3005;DHT22;1512;51.486;6.610;2022-09-12T08:48:35;17.50;99.90
3005;DHT22;1512;51.486;6.610;2022-09-12T08:52:56;17.70;99.90
3005;DHT22;1512;51.486;6.610;2022-09-12T08:57:11;17.80;99.90
3005;DHT22;1512;51.486;6.610;2022-09-12T09:05:53;17.90;99.90
3005;DHT22;1512;51.486;6.610;2022-09-12T09:10:21;18.00;99.90
3005;DHT22;1512;51.486;6.610;2022-09-12T09:23:54;18.60;99.90
3005;DHT22;1512;51.486;6.610;2022-09-12T09:27:50;18.80;99.90
3005;DHT22;1512;51.486;6.610;2022-09-12T09:32:00;19.00;99.90
3005;DHT22;1512;51.486;6.610;2022-09-12T09:36:38;19.30;99.90
3005;DHT22;1512;51.486;6.610;2022-09-12T09:45:20;19.60;99.90
3005;DHT22;1512;51.486;6.610;2022-09-12T09:49:32;19.70;99.90
3005;DHT22;1512;51.486;6.610;2022-09-12T09:53:46;19.80;99.90
3005;DHT22;1512;51.486;6.610;2022-09-12T09:57:55;20.00;99.90
3005;DHT22;1512;51.486;6.610;2022-09-12T10:06:31;20.40;99.90
3005;DHT22;1512;51.486;6.610;2022-09-12T10:11:03;20.70;99.90
3005;DHT22;1512;51.486;6.610;2022-09-12T10:14:59;20.90;99.90
3005;DHT22;1512;51.486;6.610;2022-09-12T10:19:10;21.20;99.90
3005;DHT22;1512;51.486;6.610;2022-09-12T10:23:36;21.40;99.90
3005;DHT22;1512;51.486;6.610;2022-09-12T10:27:58;21.50;99.90
3005;DHT22;1512;51.486;6.610;2022-09-12T10:32:08;21.60;99.90
3005;DHT22;1512;51.486;6.610;2022-09-12T10:36:19;21.70;99.90
3005;DHT22;1512;51.486;6.610;2022-09-12T10:40:36;21.70;99.90
3005;DHT22;1512;51.486;6.610;2022-09-12T10:44:51;21.90;99.90
3005;DHT22;1512;51.486;6.610;2022-09-12T10:53:42;22.30;99.90
3005;DHT22;1512;51.486;6.610;2022-09-12T11:11:40;22.70;99.90
3005;DHT22;1512;51.486;6.610;2022-09-12T11:16:09;22.80;99.90
3005;DHT22;1512;51.486;6.610;2022-09-12T11:29:22;23.10;99.90
3005;DHT22;1512;51.486;6.610;2022-09-12T11:33:43;23.20;99.90
3005;DHT22;1512;51.486;6.610;2022-09-12T11:42:22;23.30;99.90
3005;DHT22;1512;51.486;6.610;2022-09-12T11:46:35;23.40;99.90
3005;DHT22;1512;51.486;6.610;2022-09-12T11:50:45;23.50;99.90
3005;DHT22;1512;51.486;6.610;2022-09-12T11:55:01;23.50;99.90
3005;DHT22;1512;51.486;6.610;2022-09-12T11:59:20;23.60;99.90
3005;DHT22;1512;51.486;6.610;2022-09-12T12:03:38;23.70;99.90
3005;DHT22;1512;51.486;6.610;2022-09-12T12:07:57;23.70;99.90
3005;DHT22;1512;51.486;6.610;2022-09-12T12:12:10;23.80;99.90
3005;DHT22;1512;51.486;6.610;2022-09-12T12:20:33;24.00;99.90
3005;DHT22;1512;51.486;6.610;2022-09-12T12:25:03;24.00;99.90
3005;DHT22;1512;51.486;6.610;2022-09-12T12:41:50;24.20;99.90
3005;DHT22;1512;51.486;6.610;2022-09-12T12:46:02;24.20;99.90
3005;DHT22;1512;51.486;6.610;2022-09-12T12:58:58;24.30;99.90
3005;DHT22;1512;51.486;6.610;2022-09-12T13:03:23;24.30;99.90
3005;DHT22;1512;51.486;6.610;2022-09-12T13:07:34;24.40;99.90
3005;DHT22;1512;51.486;6.610;2022-09-12T13:11:43;24.40;99.90
3005;DHT22;1512;51.486;6.610;2022-09-12T13:15:52;24.40;99.90
3005;DHT22;1512;51.486;6.610;2022-09-12T13:20:11;24.40;99.90
3005;DHT22;1512;51.486;6.610;2022-09-12T13:24:17;24.40;99.90
3005;DHT22;1512;51.486;6.610;2022-09-12T13:28:28;24.40;99.90
3005;DHT22;1512;51.486;6.610;2022-09-12T13:32:39;24.40;99.90
3005;DHT22;1512;51.486;6.610;2022-09-12T13:45:50;24.50;99.90
3005;DHT22;1512;51.486;6.610;2022-09-12T13:50:02;24.50;99.90
3005;DHT22;1512;51.486;6.610;2022-09-12T13:54:15;24.50;99.90
3005;DHT22;1512;51.486;6.610;2022-09-12T14:02:38;24.60;99.90
3005;DHT22;1512;51.486;6.610;2022-09-12T14:06:48;24.60;99.90
3005;DHT22;1512;51.486;6.610;2022-09-12T14:10:57;24.70;99.90
3005;DHT22;1512;51.486;6.610;2022-09-12T14:15:19;24.60;99.90
3005;DHT22;1512;51.486;6.610;2022-09-12T14:19:25;24.70;99.90
3005;DHT22;1512;51.486;6.610;2022-09-12T14:23:39;24.80;99.90
3005;DHT22;1512;51.486;6.610;2022-09-12T14:27:47;24.80;99.90
3005;DHT22;1512;51.486;6.610;2022-09-12T14:32:01;24.80;99.90
3005;DHT22;1512;51.486;6.610;2022-09-12T14:36:25;24.70;99.20
3005;DHT22;1512;51.486;6.610;2022-09-12T14:40:39;24.60;99.90
3005;DHT22;1512;51.486;6.610;2022-09-12T14:44:56;24.50;99.90
3005;DHT22;1512;51.486;6.610;2022-09-12T14:49:30;24.50;99.70
3005;DHT22;1512;51.486;6.610;2022-09-12T14:57:42;24.40;99.90
3005;DHT22;1512;51.486;6.610;2022-09-12T15:06:33;24.20;99.90
3005;DHT22;1512;51.486;6.610;2022-09-12T15:10:44;24.10;99.90
3005;DHT22;1512;51.486;6.610;2022-09-12T15:15:03;24.10;99.90
3005;DHT22;1512;51.486;6.610;2022-09-12T15:19:10;24.00;99.90
3005;DHT22;1512;51.486;6.610;2022-09-12T15:23:40;24.00;99.90
3005;DHT22;1512;51.486;6.610;2022-09-12T15:27:52;24.00;99.90
3005;DHT22;1512;51.486;6.610;2022-09-12T15:32:02;23.90;99.90
3005;DHT22;1512;51.486;6.610;2022-09-12T15:36:15;23.90;99.90
3005;DHT22;1512;51.486;6.610;2022-09-12T15:40:24;23.80;99.90
3005;DHT22;1512;51.486;6.610;2022-09-12T15:44:52;23.80;99.90
3005;DHT22;1512;51.486;6.610;2022-09-12T15:49:01;23.70;99.90
3005;DHT22;1512;51.486;6.610;2022-09-12T15:53:14;23.60;99.90
3005;DHT22;1512;51.486;6.610;2022-09-12T15:57:23;23.40;99.90
3005;DHT22;1512;51.486;6.610;2022-09-12T16:01:32;23.30;99.90
3005;DHT22;1512;51.486;6.610;2022-09-12T16:05:41;23.20;99.90
3005;DHT22;1512;51.486;6.610;2022-09-12T16:09:49;23.10;99.90
3005;DHT22;1512;51.486;6.610;2022-09-12T16:13:58;23.10;99.90
3005;DHT22;1512;51.486;6.610;2022-09-12T16:18:06;23.00;99.90
3005;DHT22;1512;51.486;6.610;2022-09-12T16:22:15;23.00;99.90
3005;DHT22;1512;51.486;6.610;2022-09-12T16:26:24;23.00;99.90
3005;DHT22;1512;51.486;6.610;2022-09-12T16:30:34;23.10;99.90
3005;DHT22;1512;51.486;6.610;2022-09-12T16:34:43;23.10;99.90
3005;DHT22;1512;51.486;6.610;2022-09-12T16:38:53;23.10;99.90
3005;DHT22;1512;51.486;6.610;2022-09-12T16:43:01;23.10;99.90
3005;DHT22;1512;51.486;6.610;2022-09-12T16:47:10;23.00;99.90
3005;DHT22;1512;51.486;6.610;2022-09-12T16:51:25;22.90;99.90
3005;DHT22;1512;51.486;6.610;2022-09-12T16:55:53;22.80;99.90
3005;DHT22;1512;51.486;6.610;2022-09-12T17:00:03;22.70;99.90
3005;DHT22;1512;51.486;6.610;2022-09-12T17:04:12;22.70;99.90
3005;DHT22;1512;51.486;6.610;2022-09-12T17:08:20;22.60;99.90
3005;DHT22;1512;51.486;6.610;2022-09-12T17:12:29;22.50;99.90
3005;DHT22;1512;51.486;6.610;2022-09-12T17:16:40;22.40;99.90
3005;DHT22;1512;51.486;6.610;2022-09-12T17:20:49;22.30;99.90
3005;DHT22;1512;51.486;6.610;2022-09-12T17:24:58;22.20;99.90
3005;DHT22;1512;51.486;6.610;2022-09-12T17:29:07;22.10;99.90
3005;DHT22;1512;51.486;6.610;2022-09-12T17:33:16;22.00;99.90
3005;DHT22;1512;51.486;6.610;2022-09-12T17:37:24;21.90;99.90
3005;DHT22;1512;51.486;6.610;2022-09-12T17:41:33;21.80;99.90
3005;DHT22;1512;51.486;6.610;2022-09-12T17:45:42;21.70;99.90
3005;DHT22;1512;51.486;6.610;2022-09-12T17:49:51;21.60;99.90
3005;DHT22;1512;51.486;6.610;2022-09-12T17:54:04;21.50;99.90
3005;DHT22;1512;51.486;6.610;2022-09-12T17:58:14;21.30;99.90
3005;DHT22;1512;51.486;6.610;2022-09-12T18:02:24;21.20;99.90
3005;DHT22;1512;51.486;6.610;2022-09-12T18:06:34;21.10;99.90
3005;DHT22;1512;51.486;6.610;2022-09-12T18:10:42;21.00;99.90
3005;DHT22;1512;51.486;6.610;2022-09-12T18:14:51;21.00;99.90
3005;DHT22;1512;51.486;6.610;2022-09-12T18:19:00;20.90;99.90
3005;DHT22;1512;51.486;6.610;2022-09-12T18:23:09;20.80;99.90
3005;DHT22;1512;51.486;6.610;2022-09-12T18:27:17;20.70;99.90
3005;DHT22;1512;51.486;6.610;2022-09-12T18:31:28;20.60;99.90
3005;DHT22;1512;51.486;6.610;2022-09-12T18:35:39;20.50;99.90
3005;DHT22;1512;51.486;6.610;2022-09-12T18:39:47;20.40;99.90
3005;DHT22;1512;51.486;6.610;2022-09-12T18:43:58;20.30;99.90
3005;DHT22;1512;51.486;6.610;2022-09-12T18:48:07;20.30;99.90
3005;DHT22;1512;51.486;6.610;2022-09-12T18:52:15;20.10;99.90
3005;DHT22;1512;51.486;6.610;2022-09-12T18:56:27;20.00;99.90
3005;DHT22;1512;51.486;6.610;2022-09-12T19:00:37;20.00;99.90
3005;DHT22;1512;51.486;6.610;2022-09-12T19:04:47;19.90;99.90
3005;DHT22;1512;51.486;6.610;2022-09-12T19:08:56;19.90;99.90
3005;DHT22;1512;51.486;6.610;2022-09-12T19:13:07;19.90;99.90
3005;DHT22;1512;51.486;6.610;2022-09-12T19:17:15;19.90;99.90
3005;DHT22;1512;51.486;6.610;2022-09-12T19:21:27;19.90;99.90
3005;DHT22;1512;51.486;6.610;2022-09-12T19:25:36;19.80;99.90
3005;DHT22;1512;51.486;6.610;2022-09-12T19:29:46;19.80;99.90
3005;DHT22;1512;51.486;6.610;2022-09-12T19:33:59;19.70;99.90
3005;DHT22;1512;51.486;6.610;2022-09-12T19:38:08;19.70;99.90
3005;DHT22;1512;51.486;6.610;2022-09-12T19:42:17;19.70;99.90
3005;DHT22;1512;51.486;6.610;2022-09-12T19:46:27;19.60;99.90
3005;DHT22;1512;51.486;6.610;2022-09-12T19:50:36;19.60;99.90
3005;DHT22;1512;51.486;6.610;2022-09-12T19:54:44;19.60;99.90
3005;DHT22;1512;51.486;6.610;2022-09-12T19:58:53;19.50;99.90
3005;DHT22;1512;51.486;6.610;2022-09-12T20:03:03;19.50;99.90
3005;DHT22;1512;51.486;6.610;2022-09-12T20:07:12;19.50;99.90
3005;DHT22;1512;51.486;6.610;2022-09-12T20:11:22;19.40;99.90
3005;DHT22;1512;51.486;6.610;2022-09-12T20:15:32;19.40;99.90
3005;DHT22;1512;51.486;6.610;2022-09-12T20:19:40;19.30;99.90
3005;DHT22;1512;51.486;6.610;2022-09-12T20:23:49;19.30;99.90
3005;DHT22;1512;51.486;6.610;2022-09-12T20:27:58;19.30;99.90
3005;DHT22;1512;51.486;6.610;2022-09-12T20:32:07;19.20;99.90
3005;DHT22;1512;51.486;6.610;2022-09-12T20:36:19;19.20;99.90
3005;DHT22;1512;51.486;6.610;2022-09-12T20:40:29;19.10;99.90
3005;DHT22;1512;51.486;6.610;2022-09-12T20:44:37;19.10;99.90
3005;DHT22;1512;51.486;6.610;2022-09-12T20:49:05;19.00;99.90
3005;DHT22;1512;51.486;6.610;2022-09-12T20:53:15;19.00;99.90
3005;DHT22;1512;51.486;6.610;2022-09-12T20:57:24;18.90;99.90
3005;DHT22;1512;51.486;6.610;2022-09-12T21:01:35;18.90;99.90
3005;DHT22;1512;51.486;6.610;2022-09-12T21:05:45;18.80;99.90
3005;DHT22;1512;51.486;6.610;2022-09-12T21:09:54;18.80;99.90
3005;DHT22;1512;51.486;6.610;2022-09-12T21:14:03;18.80;99.90
3005;DHT22;1512;51.486;6.610;2022-09-12T21:18:12;18.70;99.90
3005;DHT22;1512;51.486;6.610;2022-09-12T21:22:21;18.70;99.90
3005;DHT22;1512;51.486;6.610;2022-09-12T21:26:30;18.70;99.90
3005;DHT22;1512;51.486;6.610;2022-09-12T21:30:39;18.70;99.90
3005;DHT22;1512;51.486;6.610;2022-09-12T21:34:47;18.60;99.90
3005;DHT22;1512;51.486;6.610;2022-09-12T21:38:58;18.60;99.90
3005;DHT22;1512;51.486;6.610;2022-09-12T21:43:07;18.50;99.90
3005;DHT22;1512;51.486;6.610;2022-09-12T21:47:18;18.50;99.90
3005;DHT22;1512;51.486;6.610;2022-09-12T21:51:26;18.50;99.90
3005;DHT22;1512;51.486;6.610;2022-09-12T21:55:35;18.40;99.90
3005;DHT22;1512;51.486;6.610;2022-09-12T21:59:43;18.40;99.90
3005;DHT22;1512;51.486;6.610;2022-09-12T22:03:52;18.30;99.90
3005;DHT22;1512;51.486;6.610;2022-09-12T22:08:01;18.30;99.90
3005;DHT22;1512;51.486;6.610;2022-09-12T22:12:11;18.30;99.90
3005;DHT22;1512;51.486;6.610;2022-09-12T22:16:19;18.20;99.90
3005;DHT22;1512;51.486;6.610;2022-09-12T22:20:28;18.20;99.90
3005;DHT22;1512;51.486;6.610;2022-09-12T22:24:37;18.10;99.90
3005;DHT22;1512;51.486;6.610;2022-09-12T22:28:46;18.00;99.90
3005;DHT22;1512;51.486;6.610;2022-09-12T22:32:56;18.00;99.90
3005;DHT22;1512;51.486;6.610;2022-09-12T22:37:05;18.00;99.90
3005;DHT22;1512;51.486;6.610;2022-09-12T22:41:14;18.00;99.90
3005;DHT22;1512;51.486;6.610;2022-09-12T22:45:23;17.90;99.90
3005;DHT22;1512;51.486;6.610;2022-09-12T22:49:32;17.90;99.90
3005;DHT22;1512;51.486;6.610;2022-09-12T22:53:41;17.90;99.90
3005;DHT22;1512;51.486;6.610;2022-09-12T22:57:50;17.90;99.90
3005;DHT22;1512;51.486;6.610;2022-09-12T23:01:58;17.80;99.90
3005;DHT22;1512;51.486;6.610;2022-09-12T23:06:07;17.80;99.90
3005;DHT22;1512;51.486;6.610;2022-09-12T23:10:18;17.90;99.90
3005;DHT22;1512;51.486;6.610;2022-09-12T23:14:26;17.90;99.90
3005;DHT22;1512;51.486;6.610;2022-09-12T23:18:35;17.90;99.90
3005;DHT22;1512;51.486;6.610;2022-09-12T23:22:44;17.90;99.90
3005;DHT22;1512;51.486;6.610;2022-09-12T23:26:52;18.00;99.90
3005;DHT22;1512;51.486;6.610;2022-09-12T23:31:02;18.00;99.90
3005;DHT22;1512;51.486;6.610;2022-09-12T23:35:10;17.90;99.90
3005;DHT22;1512;51.486;6.610;2022-09-12T23:39:19;17.90;99.90
3005;DHT22;1512;51.486;6.610;2022-09-12T23:43:28;17.90;99.90
3005;DHT22;1512;51.486;6.610;2022-09-12T23:47:37;18.00;99.90
3005;DHT22;1512;51.486;6.610;2022-09-12T23:51:46;18.00;99.90
3005;DHT22;1512;51.486;6.610;2022-09-12T23:55:55;17.90;99.90
